createdAt,value
2018-02-22T00:00:01.264Z,0.58
2018-02-22T00:02:28.949Z,0.53
2018-02-22T00:04:56.627Z,0.51
2018-02-22T00:07:24.307Z,0.48
2018-02-22T00:09:51.987Z,0.46
2018-02-22T00:12:19.680Z,0.46
2018-02-22T00:14:47.370Z,0.43
2018-02-22T00:17:15.056Z,0.41
2018-02-22T00:19:42.977Z,0.41
2018-02-22T00:22:18.338Z,0.39
2018-02-22T00:24:46.381Z,0.36
2018-02-22T00:27:14.097Z,0.34
2018-02-22T00:29:41.742Z,0.31
2018-02-22T00:32:09.436Z,0.31
2018-02-22T00:34:37.072Z,0.29
2018-02-22T00:37:04.787Z,0.24
2018-02-22T00:39:32.459Z,0.23
2018-02-22T00:42:00.161Z,0.20
2018-02-22T00:44:28.205Z,0.20
2018-02-22T00:46:55.895Z,0.18
2018-02-22T00:49:23.789Z,0.17
2018-02-22T00:51:51.806Z,0.10
2018-02-22T00:54:19.542Z,0.12
2018-02-22T00:56:47.391Z,0.12
2018-02-22T00:59:15.017Z,0.11
2018-02-22T01:01:42.703Z,0.08
2018-02-22T01:04:10.500Z,0.08
2018-02-22T01:06:38.220Z,0.07
2018-02-22T01:09:05.900Z,0.05
2018-02-22T01:11:34.115Z,0.01
2018-02-22T01:14:01.896Z,0.01
2018-02-22T01:16:29.513Z,-0.03
2018-02-22T01:18:57.284Z,-0.06
2018-02-22T01:21:24.946Z,-0.06
2018-02-22T01:23:52.793Z,-0.11
2018-02-22T01:26:20.405Z,-0.13
2018-02-22T01:28:48.053Z,-0.13
2018-02-22T01:31:15.869Z,-0.15
2018-02-22T01:33:43.634Z,-0.14
2018-02-22T01:36:11.278Z,-0.15
2018-02-22T01:38:38.925Z,-0.15
2018-02-22T01:41:06.627Z,-0.19
2018-02-22T01:43:34.285Z,-0.18
2018-02-22T01:46:01.988Z,-0.20
2018-02-22T01:48:29.670Z,-0.22
2018-02-22T01:50:57.410Z,-0.21
2018-02-22T01:53:25.113Z,-0.24
2018-02-22T01:55:52.754Z,-0.25
2018-02-22T01:58:20.388Z,-0.26
2018-02-22T02:00:48.017Z,-0.28
2018-02-22T02:03:15.664Z,-0.26
2018-02-22T02:05:43.306Z,-0.28
2018-02-22T02:08:10.952Z,-0.27
2018-02-22T02:10:38.949Z,-0.30
2018-02-22T02:13:07.126Z,-0.32
2018-02-22T02:15:34.759Z,-0.34
2018-02-22T02:18:02.357Z,-0.33
2018-02-22T02:20:30.108Z,-0.34
2018-02-22T02:22:57.770Z,-0.36
2018-02-22T02:25:25.442Z,-0.36
2018-02-22T02:30:33.616Z,-0.40
2018-02-22T02:33:01.239Z,-0.43
2018-02-22T02:35:29.260Z,-0.43
2018-02-22T02:37:57.130Z,-0.44
2018-02-22T02:40:24.773Z,-0.44
2018-02-22T02:42:52.463Z,-0.45
2018-02-22T02:45:20.093Z,-0.45
2018-02-22T02:47:47.711Z,-0.47
2018-02-22T02:50:15.331Z,-0.48
2018-02-22T02:52:43.164Z,-0.46
2018-02-22T02:55:10.906Z,-0.48
2018-02-22T02:57:38.527Z,-0.47
2018-02-22T03:00:06.135Z,-0.45
2018-02-22T03:02:33.781Z,-0.48
2018-02-22T03:05:01.768Z,-0.50
2018-02-22T03:07:29.419Z,-0.52
2018-02-22T03:09:57.024Z,-0.51
2018-02-22T03:12:24.656Z,-0.51
2018-02-22T03:14:52.312Z,-0.53
2018-02-22T03:17:19.916Z,-0.52
2018-02-22T03:19:47.534Z,-0.52
2018-02-22T03:22:15.189Z,-0.54
2018-02-22T03:24:42.856Z,-0.52
2018-02-22T03:27:10.523Z,-0.50
2018-02-22T03:29:38.158Z,-0.51
2018-02-22T03:32:05.841Z,-0.54
2018-02-22T03:34:33.464Z,-0.55
2018-02-22T03:37:01.097Z,-0.59
2018-02-22T03:39:28.726Z,-0.57
2018-02-22T03:41:56.722Z,-0.59
2018-02-22T03:44:24.308Z,-0.60
2018-02-22T03:46:52.169Z,-0.60
2018-02-22T03:49:20.021Z,-0.61
2018-02-22T03:51:47.817Z,-0.63
2018-02-22T03:54:15.638Z,-0.61
2018-02-22T03:56:43.257Z,-0.62
2018-02-22T03:59:11.174Z,-0.63
2018-02-22T04:01:38.966Z,-0.64
2018-02-22T04:04:06.636Z,-0.68
2018-02-22T04:06:34.288Z,-0.67
2018-02-22T04:09:02.266Z,-0.69
2018-02-22T04:11:29.953Z,-0.73
2018-02-22T04:13:57.795Z,-0.73
2018-02-22T04:16:25.542Z,-0.76
2018-02-22T04:18:53.183Z,-0.77
2018-02-22T04:21:20.991Z,-0.75
2018-02-22T04:23:48.655Z,-0.77
2018-02-22T04:26:16.427Z,-0.80
2018-02-22T04:28:44.337Z,-0.82
2018-02-22T04:31:11.948Z,-0.84
2018-02-22T04:33:39.623Z,-0.88
2018-02-22T04:36:07.265Z,-0.89
2018-02-22T04:38:34.951Z,-0.91
2018-02-22T04:41:02.574Z,-0.91
2018-02-22T04:43:30.202Z,-0.91
2018-02-22T04:45:57.787Z,-0.93
2018-02-22T04:48:25.438Z,-0.93
2018-02-22T04:50:53.079Z,-0.93
2018-02-22T04:53:20.670Z,-0.95
2018-02-22T04:55:48.385Z,-0.96
2018-02-22T04:58:15.967Z,-0.98
2018-02-22T05:00:44.453Z,-0.97
2018-02-22T05:03:12.067Z,-0.98
2018-02-22T05:05:39.672Z,-1.00
2018-02-22T05:08:07.583Z,-1.01
2018-02-22T05:10:35.277Z,-1.02
2018-02-22T05:13:03.063Z,-1.04
2018-02-22T05:15:30.710Z,-1.06
2018-02-22T05:17:58.396Z,-1.08
2018-02-22T05:20:25.996Z,-1.08
2018-02-22T05:22:53.634Z,-1.10
2018-02-22T05:25:21.280Z,-1.12
2018-02-22T05:27:48.950Z,-1.11
2018-02-22T05:30:16.570Z,-1.12
2018-02-22T05:32:44.247Z,-1.12
2018-02-22T05:35:11.842Z,-1.14
2018-02-22T05:37:39.432Z,-1.14
2018-02-22T05:40:07.065Z,-1.16
2018-02-22T05:42:34.727Z,-1.19
2018-02-22T05:45:02.366Z,-1.19
2018-02-22T05:47:30.046Z,-1.22
2018-02-22T05:49:57.945Z,-1.26
2018-02-22T05:52:25.685Z,-1.24
2018-02-22T05:54:53.607Z,-1.23
2018-02-22T05:57:21.447Z,-1.22
2018-02-22T05:59:49.074Z,-1.18
2018-02-22T06:02:16.689Z,-1.22
2018-02-22T06:04:44.457Z,-1.24
2018-02-22T06:07:12.111Z,-1.25
2018-02-22T06:09:39.801Z,-1.24
2018-02-22T06:12:07.459Z,-1.26
2018-02-22T06:14:35.184Z,-1.25
2018-02-22T06:17:02.799Z,-1.27
2018-02-22T06:19:30.481Z,-1.28
2018-02-22T06:21:58.207Z,-1.28
2018-02-22T06:24:25.960Z,-1.29
2018-02-22T06:26:54.989Z,-1.29
2018-02-22T06:29:22.664Z,-1.29
2018-02-22T06:31:50.332Z,-1.30
2018-02-22T06:34:17.965Z,-1.30
2018-02-22T06:36:45.701Z,-1.31
2018-02-22T06:39:13.383Z,-1.31
2018-02-22T06:41:41.012Z,-1.31
2018-02-22T06:44:08.894Z,-1.28
2018-02-22T06:46:36.569Z,-1.29
2018-02-22T06:49:04.192Z,-1.30
2018-02-22T06:51:32.220Z,-1.30
2018-02-22T06:53:59.884Z,-1.31
2018-02-22T06:56:27.549Z,-1.33
2018-02-22T06:58:55.191Z,-1.32
2018-02-22T07:01:22.953Z,-1.30
2018-02-22T07:03:50.712Z,-1.30
2018-02-22T07:06:18.374Z,-1.29
2018-02-22T07:08:46.005Z,-1.27
2018-02-22T07:11:13.658Z,-1.26
2018-02-22T07:13:41.303Z,-1.23
2018-02-22T07:16:09.025Z,-1.24
2018-02-22T07:18:36.836Z,-1.23
2018-02-22T07:21:04.449Z,-1.18
2018-02-22T07:23:32.174Z,-1.19
2018-02-22T07:25:59.922Z,-1.18
2018-02-22T07:28:27.866Z,-1.18
2018-02-22T07:30:55.594Z,-1.13
2018-02-22T07:33:23.218Z,-1.11
2018-02-22T07:35:50.838Z,-1.07
2018-02-22T07:38:18.523Z,-1.03
2018-02-22T07:40:46.219Z,-0.99
2018-02-22T07:43:13.914Z,-0.95
2018-02-22T07:45:41.672Z,-0.93
2018-02-22T07:48:09.405Z,-0.91
2018-02-22T07:50:37.130Z,-0.85
2018-02-22T07:53:04.851Z,-0.79
2018-02-22T07:55:32.614Z,-0.73
2018-02-22T07:58:00.249Z,-0.67
2018-02-22T08:00:27.940Z,-0.61
2018-02-22T08:02:55.606Z,-0.58
2018-02-22T08:05:23.303Z,-0.51
2018-02-22T08:07:50.972Z,-0.44
2018-02-22T08:10:18.939Z,-0.38
2018-02-22T08:12:46.642Z,-0.33
2018-02-22T08:15:14.299Z,-0.26
2018-02-22T08:17:41.962Z,-0.22
2018-02-22T08:20:09.681Z,-0.16
2018-02-22T08:22:37.337Z,-0.10
2018-02-22T08:25:05.062Z,-0.04
2018-02-22T08:27:32.866Z,0.01
2018-02-22T08:30:00.559Z,0.04
2018-02-22T08:32:28.281Z,0.10
2018-02-22T08:34:56.017Z,0.12
2018-02-22T08:37:23.715Z,0.17
2018-02-22T08:39:51.384Z,0.22
2018-02-22T08:42:19.068Z,0.29
2018-02-22T08:44:46.781Z,0.36
2018-02-22T08:47:14.451Z,0.43
2018-02-22T08:49:42.156Z,0.48
2018-02-22T08:52:09.873Z,0.57
2018-02-22T08:54:37.563Z,0.61
2018-02-22T08:57:05.226Z,0.66
2018-02-22T08:59:32.946Z,0.73
2018-02-22T09:02:00.675Z,0.80
2018-02-22T09:04:28.308Z,0.86
2018-02-22T09:06:56.046Z,0.93
2018-02-22T09:09:24.172Z,0.97
2018-02-22T09:11:51.791Z,1.00
2018-02-22T09:14:19.482Z,1.05
2018-02-22T09:16:47.129Z,1.05
2018-02-22T09:19:14.782Z,1.08
2018-02-22T09:21:42.422Z,1.07
2018-02-22T09:24:10.343Z,1.12
2018-02-22T09:26:38.027Z,1.13
2018-02-22T09:29:05.672Z,1.15
2018-02-22T09:31:33.290Z,1.20
2018-02-22T09:34:01.019Z,1.18
2018-02-22T09:36:28.708Z,1.18
2018-02-22T09:38:56.429Z,1.20
2018-02-22T09:41:24.111Z,1.24
2018-02-22T09:43:51.773Z,1.28
2018-02-22T09:46:19.403Z,1.33
2018-02-22T09:48:52.806Z,1.37
2018-02-22T09:51:29.935Z,1.38
2018-02-22T09:54:01.293Z,1.42
2018-02-22T11:21:14.251Z,2.48
2018-02-22T11:23:41.937Z,2.51
2018-02-22T11:26:09.624Z,2.55
2018-02-22T11:28:37.324Z,2.58
2018-02-22T11:31:04.955Z,2.58
2018-02-22T11:33:32.964Z,2.57
2018-02-22T11:36:00.709Z,2.58
2018-02-22T11:38:28.425Z,2.57
2018-02-22T11:40:56.258Z,2.56
2018-02-22T11:43:24.047Z,2.54
2018-02-22T11:45:51.838Z,2.48
2018-02-22T11:48:20.063Z,2.50
2018-02-22T11:50:47.794Z,2.47
2018-02-22T11:53:15.511Z,2.48
2018-02-22T11:55:43.212Z,2.51
2018-02-22T11:58:10.928Z,2.49
2018-02-22T12:00:38.639Z,2.47
2018-02-22T12:03:06.861Z,2.47
2018-02-22T12:05:34.557Z,2.42
2018-02-22T12:08:02.267Z,2.42
2018-02-22T12:10:30.030Z,2.43
2018-02-22T12:12:57.732Z,2.40
2018-02-22T12:15:25.454Z,2.36
2018-02-22T12:17:53.172Z,2.37
2018-02-22T12:20:20.901Z,2.38
2018-02-22T12:22:48.598Z,2.31
2018-02-22T12:25:16.735Z,2.32
2018-02-22T12:27:44.562Z,2.34
2018-02-22T12:30:12.608Z,2.37
2018-02-22T12:32:40.296Z,2.41
2018-02-22T12:35:08.071Z,2.38
2018-02-22T12:37:35.848Z,2.40
2018-02-22T12:40:03.936Z,2.40
2018-02-22T12:42:31.667Z,2.44
2018-02-22T12:44:59.395Z,2.45
2018-02-22T12:47:27.147Z,2.44
2018-02-22T12:49:55.202Z,2.43
2018-02-22T12:52:22.898Z,2.43
2018-02-22T12:54:50.662Z,2.50
2018-02-22T12:57:18.390Z,2.58
2018-02-22T12:59:46.070Z,2.60
2018-02-22T13:02:14.856Z,2.60
2018-02-22T13:04:42.602Z,2.65
2018-02-22T13:07:10.280Z,2.69
2018-02-22T13:09:38.250Z,2.71
2018-02-22T13:12:06.166Z,2.64
2018-02-22T13:14:33.855Z,2.67
2018-02-22T13:17:01.958Z,2.68
2018-02-22T13:19:29.636Z,2.67
2018-02-22T13:21:57.306Z,2.70
2018-02-22T13:24:25.029Z,2.67
2018-02-22T13:26:53.018Z,2.66
2018-02-22T13:29:20.684Z,2.70
2018-02-22T13:31:48.497Z,2.73
2018-02-22T13:34:28.209Z,2.70
2018-02-22T13:36:56.354Z,2.72
2018-02-22T13:39:24.102Z,2.75
2018-02-22T13:41:51.887Z,2.76
2018-02-22T13:44:31.536Z,2.76
2018-02-22T13:46:59.300Z,2.84
2018-02-22T13:49:38.761Z,2.92
2018-02-22T13:52:06.477Z,2.92
2018-02-22T13:54:34.193Z,2.93
2018-02-22T13:57:16.707Z,2.96
2018-02-22T13:59:44.403Z,2.97
2018-02-22T14:02:23.530Z,2.94
2018-02-22T14:04:51.185Z,2.92
2018-02-22T14:07:19.208Z,2.85
2018-02-22T14:09:47.179Z,2.90
2018-02-22T14:12:14.829Z,2.93
2018-02-22T14:14:42.514Z,2.98
2018-02-22T14:17:10.163Z,2.97
2018-02-22T14:19:37.835Z,2.93
2018-02-22T14:22:05.641Z,2.96
2018-02-22T14:24:33.322Z,2.96
2018-02-22T14:27:00.938Z,2.93
2018-02-22T14:29:28.622Z,2.97
2018-02-22T14:31:56.286Z,2.97
2018-02-22T14:34:23.938Z,2.98
2018-02-22T14:36:51.638Z,2.95
2018-02-22T14:39:19.269Z,3.05
2018-02-22T14:41:46.960Z,3.06
2018-02-22T14:44:14.621Z,3.12
2018-02-22T14:46:42.344Z,3.18
2018-02-22T14:49:09.980Z,3.21
2018-02-22T14:51:37.608Z,3.25
2018-02-22T14:54:05.254Z,3.22
2018-02-22T14:56:32.881Z,3.27
2018-02-22T14:59:00.558Z,3.34
2018-02-22T15:01:28.194Z,3.39
2018-02-22T15:03:56.136Z,3.38
2018-02-22T15:06:23.816Z,3.36
2018-02-22T15:08:51.462Z,3.37
2018-02-22T15:11:19.197Z,3.41
2018-02-22T15:13:46.812Z,3.43
2018-02-22T15:16:14.420Z,3.40
2018-02-22T15:18:42.221Z,3.38
2018-02-22T15:21:09.921Z,3.39
2018-02-22T15:23:37.652Z,3.36
2018-02-22T15:26:05.327Z,3.34
2018-02-22T15:28:32.981Z,3.34
2018-02-22T15:31:00.650Z,3.28
2018-02-22T15:33:28.418Z,3.17
2018-02-22T15:35:56.069Z,3.12
2018-02-22T15:38:23.777Z,3.07
2018-02-22T15:40:51.483Z,3.05
2018-02-22T15:43:19.385Z,3.07
2018-02-22T15:45:47.046Z,3.05
2018-02-22T15:48:14.794Z,3.04
2018-02-22T15:50:42.456Z,3.05
2018-02-22T15:53:10.149Z,3.09
2018-02-22T15:55:37.824Z,3.11
2018-02-22T15:58:05.521Z,3.08
2018-02-22T16:00:33.521Z,3.05
2018-02-22T16:03:01.173Z,3.05
2018-02-22T16:05:28.852Z,3.10
2018-02-22T16:07:56.792Z,3.10
2018-02-22T16:10:24.512Z,3.09
2018-02-22T16:13:09.130Z,3.04
2018-02-22T16:15:36.841Z,3.01
2018-02-22T16:18:04.528Z,2.99
2018-02-22T16:20:32.233Z,2.94
2018-02-22T16:22:59.894Z,2.93
2018-02-22T16:25:27.613Z,2.93
2018-02-22T16:27:55.324Z,2.96
2018-02-22T16:30:23.004Z,2.94
2018-02-22T16:32:50.751Z,2.90
2018-02-22T16:35:18.407Z,2.87
2018-02-22T16:37:46.126Z,2.83
2018-02-22T16:40:13.800Z,2.80
2018-02-22T16:42:41.490Z,2.77
2018-02-22T16:45:09.229Z,2.74
2018-02-22T16:47:36.908Z,2.74
2018-02-22T16:50:04.609Z,2.70
2018-02-22T16:52:32.649Z,2.65
2018-02-22T16:55:00.324Z,2.62
2018-02-22T16:57:27.989Z,2.62
2018-02-22T16:59:55.660Z,2.55
2018-02-22T17:02:23.341Z,2.47
2018-02-22T17:04:50.968Z,2.39
2018-02-22T17:07:18.863Z,2.33
2018-02-22T17:09:46.491Z,2.32
2018-02-22T17:12:14.127Z,2.29
2018-02-22T17:14:41.782Z,2.28
2018-02-22T17:17:09.416Z,2.26
2018-02-22T17:19:37.100Z,2.24
2018-02-22T17:22:04.788Z,2.22
2018-02-22T17:24:32.492Z,2.20
2018-02-22T17:27:05.712Z,2.18
2018-02-22T17:29:38.818Z,2.16
2018-02-22T17:32:12.131Z,2.13
2018-02-22T17:34:39.823Z,2.10
2018-02-22T17:37:07.958Z,2.07
2018-02-22T17:42:38.628Z,2.07
2018-02-22T17:45:06.592Z,2.05
2018-02-22T17:47:34.288Z,2.08
2018-02-22T17:50:02.080Z,2.07
2018-02-22T17:52:29.752Z,2.09
2018-02-22T17:54:57.448Z,2.08
2018-02-22T17:57:25.234Z,2.09
2018-02-22T17:59:52.944Z,2.06
2018-02-22T18:02:20.608Z,2.04
2018-02-22T18:04:48.614Z,2.05
2018-02-22T18:07:16.331Z,2.07
2018-02-22T18:09:44.025Z,2.09
2018-02-22T18:12:11.743Z,2.09
2018-02-22T18:14:39.706Z,2.04
2018-02-22T18:17:08.004Z,2.03
2018-02-22T18:19:36.456Z,2.02
2018-02-22T18:22:04.428Z,1.99
2018-02-22T18:24:32.166Z,2.02
2018-02-22T18:26:59.870Z,2.03
2018-02-22T18:29:29.740Z,2.03
2018-02-22T18:31:57.936Z,2.02
2018-02-22T18:34:25.891Z,2.00
2018-02-22T18:36:53.592Z,2.00
2018-02-22T18:39:26.951Z,2.01
2018-02-22T18:41:54.707Z,1.98
2018-02-22T18:44:28.003Z,1.99
2018-02-22T18:46:55.862Z,1.97
2018-02-22T18:49:23.543Z,1.96
2018-02-22T18:51:51.407Z,1.93
2018-02-22T18:54:19.087Z,1.93
2018-02-22T18:56:47.045Z,1.89
2018-02-22T18:59:14.790Z,1.87
2018-02-22T19:01:42.882Z,1.86
2018-02-22T19:04:10.492Z,1.85
2018-02-22T19:06:38.209Z,1.83
2018-02-22T19:09:06.016Z,1.81
2018-02-22T19:11:33.693Z,1.81
2018-02-22T19:14:01.331Z,1.75
2018-02-22T19:16:28.975Z,1.74
2018-02-22T19:18:56.921Z,1.72
2018-02-22T19:21:24.548Z,1.70
2018-02-22T19:23:52.226Z,1.68
2018-02-22T19:26:20.204Z,1.66
2018-02-22T19:28:48.118Z,1.66
2018-02-22T19:31:15.842Z,1.65
2018-02-22T19:33:43.607Z,1.58
2018-02-22T19:36:11.451Z,1.59
2018-02-22T19:38:39.068Z,1.58
2018-02-22T19:41:06.915Z,1.59
2018-02-22T19:43:34.791Z,1.58
2018-02-22T19:46:02.580Z,1.55
2018-02-22T19:48:30.310Z,1.53
2018-02-22T19:50:58.025Z,1.46
2018-02-22T19:53:25.741Z,1.46
2018-02-22T19:55:53.366Z,1.43
2018-02-22T19:58:21.178Z,1.42
2018-02-22T20:00:48.981Z,1.43
2018-02-22T20:03:16.591Z,1.37
2018-02-22T20:05:44.427Z,1.34
2018-02-22T20:08:12.155Z,1.34
2018-02-22T20:10:39.826Z,1.33
2018-02-22T20:13:07.467Z,1.32
2018-02-22T20:15:35.474Z,1.27
2018-02-22T20:18:03.165Z,1.27
2018-02-22T20:20:30.824Z,1.22
2018-02-22T20:22:58.624Z,1.21
2018-02-22T20:25:26.659Z,1.17
2018-02-22T20:27:54.411Z,1.16
2018-02-22T20:30:22.041Z,1.17
2018-02-22T20:32:49.653Z,1.16
2018-02-22T20:35:17.322Z,1.15
2018-02-22T20:37:45.034Z,1.14
2018-02-22T20:40:12.729Z,1.10
2018-02-22T20:42:40.400Z,1.10
2018-02-22T20:45:08.082Z,1.06
2018-02-22T20:47:35.794Z,1.06
2018-02-22T20:50:03.996Z,1.04
2018-02-22T20:52:37.177Z,1.00
2018-02-22T20:58:07.328Z,0.96
2018-02-22T21:00:35.062Z,0.90
2018-02-22T21:03:03.063Z,0.89
2018-02-22T21:05:30.758Z,0.92
2018-02-22T21:07:58.399Z,0.92
2018-02-22T21:10:26.135Z,0.89
2018-02-22T21:12:53.769Z,0.90
2018-02-22T21:15:21.374Z,0.87
2018-02-22T21:17:49.237Z,0.89
2018-02-22T21:20:16.851Z,0.86
2018-02-22T21:22:44.878Z,0.82
2018-02-22T21:25:12.522Z,0.82
2018-02-22T21:27:40.165Z,0.82
2018-02-22T21:30:07.830Z,0.80
2018-02-22T21:32:35.497Z,0.78
2018-02-22T21:35:03.137Z,0.75
2018-02-22T21:37:30.831Z,0.74
2018-02-22T21:39:58.504Z,0.72
2018-02-22T21:42:26.167Z,0.73
2018-02-22T21:44:54.037Z,0.76
2018-02-22T21:47:21.678Z,0.75
2018-02-22T21:49:49.487Z,0.73
2018-02-22T21:52:17.155Z,0.71
2018-02-22T21:54:44.837Z,0.71
2018-02-22T21:57:12.768Z,0.70
2018-02-22T21:59:40.363Z,0.70
2018-02-22T22:02:07.983Z,0.70
2018-02-22T22:04:36.356Z,0.65
2018-02-22T22:07:04.713Z,0.59
2018-02-22T22:09:32.792Z,0.59
2018-02-22T22:12:00.853Z,0.56
2018-02-22T22:14:28.969Z,0.53
2018-02-22T22:16:57.139Z,0.53
2018-02-22T22:19:25.256Z,0.50
2018-02-22T22:21:53.127Z,0.49
2018-02-22T22:24:20.848Z,0.48
2018-02-22T22:26:48.913Z,0.48
2018-02-22T22:29:16.610Z,0.47
2018-02-22T22:31:44.317Z,0.43
2018-02-22T22:34:11.959Z,0.45
2018-02-22T22:36:49.762Z,0.38
2018-02-22T22:39:19.104Z,0.37
2018-02-22T22:41:55.511Z,0.40
2018-02-22T22:44:23.227Z,0.37
2018-02-22T22:46:50.872Z,0.36
2018-02-22T22:49:18.505Z,0.31
2018-02-22T22:51:46.073Z,0.30
2018-02-22T22:54:13.686Z,0.30
2018-02-22T22:56:41.362Z,0.28
2018-02-22T22:59:09.004Z,0.30
2018-02-22T23:01:36.605Z,0.30
2018-02-22T23:04:04.242Z,0.28
2018-02-22T23:06:31.964Z,0.28
2018-02-22T23:08:59.732Z,0.29
2018-02-22T23:11:27.308Z,0.27
2018-02-22T23:13:54.984Z,0.23
2018-02-22T23:16:22.602Z,0.26
2018-02-22T23:18:50.273Z,0.25
2018-02-22T23:21:17.865Z,0.23
2018-02-22T23:23:45.456Z,0.23
2018-02-22T23:26:13.104Z,0.24
2018-02-22T23:28:40.721Z,0.24
2018-02-22T23:31:08.368Z,0.18
2018-02-22T23:33:36.006Z,0.19
2018-02-22T23:36:03.631Z,0.18
2018-02-22T23:38:31.238Z,0.17
2018-02-22T23:41:02.075Z,0.17
2018-02-22T23:43:29.992Z,0.14
2018-02-22T23:45:57.614Z,0.11
2018-02-22T23:48:25.323Z,0.12
2018-02-22T23:50:52.898Z,0.12
2018-02-22T23:53:20.712Z,0.10
2018-02-22T23:55:48.711Z,0.10
2018-02-22T23:58:16.358Z,0.09
